Tuesday, January 16, 2018, 12:21 PM EST
Back to Local

KBUF, Greater Buffalo International Airport

Location: Buffalo, NY, United States Lat: 42.933
Local Time: 12:21 PM EST (17:21 GMT) Lon: -78.733
Time Zone: US/Eastern Elev: 725 ft

Show me the last for .
Show Decoded

2018-01-16 11:54 METAR KBUF 161654Z 26008KT 10SM FEW018 FEW055 M03/M08 A3037 RMK AO2 SLP296
                 T10331083 =
2018-01-16 10:54 METAR KBUF 161554Z 24009KT 10SM FEW012 FEW023 FEW050 M04/M07 A3038 RMK AO2 SNE12
                 SLP301 P0000 T10391072 =
2018-01-16 09:54 METAR KBUF 161454Z 25011KT 10SM -SN FEW012 FEW020 BKN050 M04/M07 A3038 RMK AO2
                 SLP300 PCPN VRY LGT P0000 60000 T10391067 53018 =
2018-01-16 08:54 METAR KBUF 161354Z 23008KT 10SM -SN FEW017 BKN050 M04/M06 A3035 RMK AO2 SLP291
                 PCPN VRY LGT P0000 T10441061 =
2018-01-16 07:54 METAR KBUF 161254Z 24011KT 9SM -SN SCT017 OVC050 M04/M07 A3034 RMK AO2 SLP287
                 P0000 T10391067 =
2018-01-16 07:28 METAR KBUF 161228Z 22009KT 8SM -SN SCT010 SCT017 OVC050 M04/M06 A3034 RMK AO2
                 P0000 T10391056 =
2018-01-16 07:13 METAR KBUF 161213Z 22010KT 6SM -SN BR OVC010 M04/M05 A3033 RMK AO2 CIG 006V014
                 P0000 T10391050 =
2018-01-16 06:54 METAR KBUF 161154Z 22006KT 2SM -SN BR OVC008 M04/M05 A3032 RMK AO2 SLP281 4/006
                 P0001 60002 70007 T10391050 11039 21061 53007 =
2018-01-16 06:41 METAR KBUF 161141Z 22007KT 4SM -SN BR OVC008 M04/M06 A3032 RMK AO2 CIG 007V012
                 P0001 T10441056 =
2018-01-16 06:33 METAR KBUF 161133Z 22007KT 4SM -SN BR OVC010 M04/M06 A3032 RMK AO2 CIG 008V012
                 P0001 T10441056 =
2018-01-16 06:09 METAR KBUF 161109Z 22005KT 2SM -SN BR OVC011 M04/M06 A3032 RMK AO2 P0000
                 T10441056 =
2018-01-16 05:54 METAR KBUF 161054Z 21005KT 3SM -SN BR OVC013 M04/M06 A3032 RMK AO2 SLP278 P0001
                 T10441061 =
2018-01-16 05:28 METAR KBUF 161028Z 21006KT 3SM -SN BR BKN013 OVC025 M04/M06 A3031 RMK AO2 P0001
                 T10441061 =
2018-01-16 05:21 METAR KBUF 161021Z 20006KT 2 1/2SM -SN BR BKN016 BKN023 OVC040 M04/M06 A3031 RMK
                 AO2 P0001 T10441061 =
2018-01-16 04:54 METAR KBUF 160954Z 17005KT 5SM -SN BR BKN016 OVC043 M05/M07 A3030 RMK AO2 SLP274
                 P0000 T10501067 =
2018-01-16 03:54 METAR KBUF 160854Z 16005KT 7SM -SN OVC023 M06/M07 A3030 RMK AO2 SLP274 P0000
                 60000 T10561067 53004 =
2018-01-16 03:22 METAR KBUF 160822Z 17006KT 9SM -SN BKN029 OVC034 M06/M07 A3030 RMK AO2 P0000
                 T10561067 =
2018-01-16 02:54 METAR KBUF 160754Z 16005KT 8SM -SN OVC034 M06/M07 A3030 RMK AO2 SLP272 P0000
                 T10561072 =
2018-01-16 01:54 METAR KBUF 160654Z 16007KT 5SM -SN BR FEW027 SCT038 OVC047 M06/M08 A3029 RMK AO2
                 SLP270 P0000 T10561078 =
2018-01-16 00:54 METAR KBUF 160554Z COR 18005KT 8SM -SN BKN047 OVC055 M06/M08 A3029 RMK AO2
                 SLP270 P0000 60004 4/005 T10611083 11061 21072 56016 =
2018-01-15 23:54 METAR KBUF 160454Z 13005KT 9SM -SN OVC060 M07/M09 A3030 RMK AO2 SLP273 P0000
                 T10671089 410561161 =
2018-01-15 22:54 METAR KBUF 160354Z 15006KT 8SM -SN BKN040 OVC045 M07/M08 A3031 RMK AO2 SLP279
                 P0000 T10671078 =
2018-01-15 22:32 METAR KBUF 160332Z 14005KT 3SM -SN BR OVC034 M07/M08 A3032 RMK AO2 P0000
                 T10671078 =
2018-01-15 22:22 METAR KBUF 160322Z 13006KT 2 1/2SM -SN BR OVC030 M07/M08 A3032 RMK AO2 P0000
                 T10671078 =
2018-01-15 21:54 METAR KBUF 160254Z 14004KT 2SM -SN BR OVC022 M07/M08 A3033 RMK AO2 SLP287 P0002
                 60004 T10671078 55004 =
2018-01-15 21:11 METAR KBUF 160211Z 13006KT 1 1/4SM -SN BR OVC017 M07/M08 A3034 RMK AO2 P0001
                 T10671083 =
2018-01-15 20:54 METAR KBUF 160154Z 13005KT 1 1/4SM -SN BR OVC014 M07/M08 A3033 RMK AO2 SLP286
                 P0001 T10671083 =
2018-01-15 20:26 METAR KBUF 160126Z 13005KT 1SM R23/P6000FT -SN BR OVC014 M07/M09 A3034 RMK AO2
                 P0000 T10671089 =
2018-01-15 20:18 METAR KBUF 160118Z 13006KT 1 1/2SM -SN BR OVC022 M07/M09 A3034 =
2018-01-15 19:54 METAR KBUF 160054Z 12005KT 2SM -SN BR OVC028 M07/M09 A3034 RMK AO2 SLP289 P0001
                 T10671089 =
2018-01-15 19:44 METAR KBUF 160044Z 10005KT 3SM -SN BR OVC029 M07/M09 A3034 RMK AO2 P0000
                 T10671089 =
2018-01-15 19:06 METAR KBUF 160006Z 10006KT 3SM -SN BR OVC041 M07/M09 A3034 RMK AO2 P0000
                 T10721089 =
2018-01-15 18:58 METAR KBUF 152358Z 10006KT 2 1/2SM -SN BR OVC033 M07/M09 A3035 =
2018-01-15 18:54 METAR KBUF 152354Z 10006KT 3SM -SN BR OVC033 M07/M09 A3035 RMK AO2 SLP292 4/004
                 P0001 60001 T10721089 11056 21072 58004 =
2018-01-15 17:54 METAR KBUF 152254Z 08007KT 8SM -SN OVC038 M07/M09 A3035 RMK AO2 SLP292 SNB35
                 P0000 T10671094 =
2018-01-15 16:54 METAR KBUF 152154Z 07006KT 10SM FEW035 BKN060 BKN110 BKN230 M07/M10 A3036 RMK
                 AO2 SNE22 SLP298 P0000 T10671100 =
2018-01-15 15:54 METAR KBUF 152054Z 10006KT 5SM -SN FEW035 BKN050 BKN230 M07/M09 A3036 RMK AO2
                 SLP297 P0000 60000 T10671094 56013 =
2018-01-15 15:17 METAR KBUF 152017Z 12006KT 3SM R23/5500VP6000FT -SN SCT029 BKN040 OVC230 M07/M10
                 A3036 =
2018-01-15 15:02 METAR KBUF 152002Z 16007KT 2SM -SN BKN029 OVC037 M07/M10 A3037 RMK AO2 P0000
                 T10671100 =
2018-01-15 14:54 METAR KBUF 151954Z 16008KT 1 3/4SM -SN BKN031 OVC039 M07/M10 A3038 RMK AO2 SNB47
                 SLP302 P0000 T10671100 =
2018-01-15 13:54 METAR KBUF 151854Z 00000KT 10SM FEW044 BKN055 BKN070 OVC160 M06/M15 A3038 RMK
                 AO2 SLP303 T10561150 =
2018-01-15 12:54 METAR KBUF 151754Z 00000KT 10SM FEW070 BKN090 OVC140 M07/M15 A3040 RMK AO2
                 SLP310 4/004 933006 T10721150 11072 21139 58030 =

Support USWX by starting your Amazon purchase here.